Time;durP1;ratioP1;P1;durP2;ratioP2;P2;SDS_P1;SDS_P2;PMS_P1;PMS_P2;Temp;Humidity;BMP_temperature;BMP_pressure;BME280_temperature;BME280_humidity;BME280_pressure;Samples;Min_cycle;Max_cycle;Signal;HPM_P1;HPM_P2
2020/12/14 00:02:34;;;;;;;111.87;37.50;;;-0.20;99.90;;;;;;4438317;28;660738;-67
2020/12/14 00:05:21;;;;;;;92.67;28.20;;;-0.20;99.90;;;;;;4457123;28;662495;-67
2020/12/14 00:08:08;;;;;;;109.13;27.40;;;-0.20;99.90;;;;;;4439208;28;660181;-67
2020/12/14 00:10:56;;;;;;;96.93;24.97;;;-0.20;99.90;;;;;;4462985;28;661971;-67
2020/12/14 00:13:43;;;;;;;87.47;27.20;;;-0.20;99.90;;;;;;4435393;28;661182;-67
2020/12/14 00:16:30;;;;;;;92.13;26.88;;;-0.30;99.90;;;;;;4456407;28;659238;-68
2020/12/14 00:19:17;;;;;;;112.05;27.88;;;-0.20;99.90;;;;;;4460220;28;659927;-68
2020/12/14 00:22:03;;;;;;;98.80;27.27;;;-0.30;99.90;;;;;;4440789;28;660887;-67
2020/12/14 00:24:50;;;;;;;108.27;28.77;;;-0.30;99.90;;;;;;4458761;28;660836;-67
2020/12/14 00:27:39;;;;;;;108.22;30.23;;;-0.20;99.90;;;;;;4445383;28;660751;-65
2020/12/14 00:30:26;;;;;;;111.23;31.20;;;-0.20;99.90;;;;;;4460260;28;661820;-67
2020/12/14 00:33:13;;;;;;;102.53;30.13;;;-0.20;99.90;;;;;;4434261;28;660543;-67
2020/12/14 00:36:02;;;;;;;93.63;26.83;;;-0.30;99.90;;;;;;4458354;28;660260;-67
2020/12/14 00:38:49;;;;;;;93.20;26.40;;;-0.20;99.90;;;;;;4434641;28;661070;-67
2020/12/14 00:41:36;;;;;;;93.63;28.10;;;-0.20;99.90;;;;;;4448695;28;660029;-67
2020/12/14 00:44:24;;;;;;;95.83;28.67;;;-0.20;99.90;;;;;;4441522;28;659798;-67
2020/12/14 00:47:11;;;;;;;97.87;27.27;;;-0.20;99.90;;;;;;4446277;28;660456;-67
2020/12/14 00:49:58;;;;;;;92.63;26.30;;;-0.10;99.90;;;;;;4430235;28;662135;-67
2020/12/14 00:52:45;;;;;;;101.60;27.43;;;-0.20;99.90;;;;;;4450383;28;659618;-68
2020/12/14 00:55:33;;;;;;;109.65;29.77;;;-0.20;99.90;;;;;;4434199;28;660651;-65
2020/12/14 00:58:20;;;;;;;115.13;30.50;;;-0.20;99.90;;;;;;4451392;28;660918;-68
2020/12/14 01:01:08;;;;;;;121.22;32.85;;;-0.30;99.90;;;;;;4445523;28;662077;-67
2020/12/14 01:03:55;;;;;;;122.93;32.33;;;-0.20;99.90;;;;;;4428710;28;661588;-67
2020/12/14 01:06:41;;;;;;;96.47;29.23;;;-0.20;99.90;;;;;;4441702;28;660891;-67
2020/12/14 01:09:28;;;;;;;110.13;31.40;;;-0.20;99.90;;;;;;4429928;28;659893;-67
2020/12/14 01:12:16;;;;;;;128.80;33.25;;;-0.20;99.90;;;;;;4442856;28;662412;-67
2020/12/14 01:15:03;;;;;;;131.57;33.20;;;-0.20;99.90;;;;;;4431862;28;660743;-66
2020/12/14 01:17:51;;;;;;;133.63;35.37;;;-0.20;99.90;;;;;;4445016;28;662191;-67
2020/12/14 01:20:39;;;;;;;141.40;34.57;;;-0.20;99.90;;;;;;4421823;28;660574;-67
2020/12/14 01:23:26;;;;;;;121.50;32.50;;;-0.20;99.90;;;;;;4447017;28;660990;-68
2020/12/14 01:26:13;;;;;;;110.03;31.27;;;-0.20;99.90;;;;;;4426491;28;660843;-67
2020/12/14 01:29:00;;;;;;;126.60;31.73;;;-0.20;99.90;;;;;;4446715;28;662659;-67
2020/12/14 01:31:47;;;;;;;111.10;29.63;;;-0.20;99.90;;;;;;4447631;28;660469;-67
2020/12/14 01:34:35;;;;;;;98.43;30.10;;;-0.20;99.90;;;;;;4428780;28;661717;-67
2020/12/14 01:37:22;;;;;;;99.23;31.63;;;-0.20;99.90;;;;;;4448724;28;659247;-67
2020/12/14 01:40:09;;;;;;;117.27;30.87;;;-0.20;99.90;;;;;;4425521;28;661289;-68
2020/12/14 01:42:56;;;;;;;110.20;29.87;;;-0.20;99.90;;;;;;4442762;28;662372;-67
2020/12/14 01:45:43;;;;;;;109.75;29.73;;;-0.20;99.90;;;;;;4428059;28;660949;-65
2020/12/14 01:48:29;;;;;;;99.93;29.73;;;-0.20;99.90;;;;;;4453147;28;660504;-67
2020/12/14 01:51:17;;;;;;;102.40;27.43;;;-0.20;99.90;;;;;;4456482;28;659759;-67
2020/12/14 01:54:06;;;;;;;109.47;28.83;;;-0.20;99.90;;;;;;4430237;28;662259;-67
2020/12/14 01:56:53;;;;;;;110.13;28.77;;;-0.20;99.90;;;;;;4428458;28;661468;-67
2020/12/14 01:59:40;;;;;;;106.50;29.53;;;-0.20;99.90;;;;;;4448363;28;661933;-67
2020/12/14 02:02:28;;;;;;;107.00;28.73;;;-0.20;99.90;;;;;;4450455;28;660747;-65
2020/12/14 02:05:14;;;;;;;119.83;30.23;;;-0.20;99.90;;;;;;4463653;28;660448;-67
2020/12/14 02:08:05;;;;;;;123.73;28.97;;;-0.20;99.90;;;;;;4448562;28;660483;-67
2020/12/14 02:10:52;;;;;;;103.27;27.10;;;-0.20;99.90;;;;;;4432187;28;660788;-67
2020/12/14 02:13:39;;;;;;;100.50;26.00;;;-0.20;99.90;;;;;;4439402;28;661110;-67
2020/12/14 02:16:26;;;;;;;112.07;27.67;;;-0.20;99.90;;;;;;4453096;28;661733;-67
2020/12/14 02:19:13;;;;;;;106.72;28.00;;;-0.20;99.90;;;;;;4435808;28;660960;-65
2020/12/14 02:21:59;;;;;;;105.70;28.20;;;-0.20;99.90;;;;;;4458513;28;660443;-67
2020/12/14 02:24:53;;;;;;;98.63;27.07;;;-0.20;99.90;;;;;;4446700;28;661132;-67
2020/12/14 02:27:42;;;;;;;122.87;32.47;;;-0.20;99.90;;;;;;4434780;28;660087;-68
2020/12/14 02:30:29;;;;;;;125.60;29.97;;;-0.20;99.90;;;;;;4443097;28;661582;-67
2020/12/14 02:33:16;;;;;;;116.10;29.40;;;-0.20;99.90;;;;;;4455222;28;661780;-67
2020/12/14 02:36:03;;;;;;;123.67;31.73;;;-0.20;99.90;;;;;;4437475;28;660575;-67
2020/12/14 02:38:50;;;;;;;118.73;30.87;;;-0.10;99.90;;;;;;4449217;28;662250;-67
2020/12/14 02:41:38;;;;;;;123.20;33.07;;;-0.10;99.90;;;;;;4454456;28;660466;-68
2020/12/14 02:44:25;;;;;;;129.60;31.17;;;-0.10;99.90;;;;;;4430544;28;661738;-67
2020/12/14 02:47:12;;;;;;;117.27;28.97;;;-0.10;99.90;;;;;;4456354;28;661719;-67
2020/12/14 02:49:59;;;;;;;117.27;28.27;;;-0.10;99.90;;;;;;4434602;28;661424;-67
2020/12/14 02:52:46;;;;;;;116.93;30.17;;;0.00;99.90;;;;;;4453950;28;661078;-68
2020/12/14 02:55:33;;;;;;;119.30;28.40;;;0.00;99.90;;;;;;4429906;28;659508;-67
2020/12/14 02:58:21;;;;;;;100.53;27.63;;;0.00;99.90;;;;;;4457040;28;660486;-67
2020/12/14 03:01:08;;;;;;;118.50;29.33;;;-0.10;99.90;;;;;;4436719;28;659656;-66
2020/12/14 03:03:55;;;;;;;105.83;26.57;;;-0.10;99.90;;;;;;4458313;28;661891;-67
2020/12/14 03:06:43;;;;;;;96.73;25.70;;;-0.10;99.90;;;;;;4446745;28;660836;-67
2020/12/14 03:09:30;;;;;;;101.53;25.83;;;-0.20;99.90;;;;;;4426191;28;660956;-67
2020/12/14 03:12:17;;;;;;;116.00;26.77;;;-0.10;99.90;;;;;;4449448;28;661079;-65
2020/12/14 03:15:05;;;;;;;100.73;25.17;;;-0.10;99.90;;;;;;4459371;28;661315;-67
2020/12/14 03:17:53;;;;;;;107.18;27.10;;;-0.10;99.90;;;;;;4436971;28;662542;-66
2020/12/14 03:20:40;;;;;;;114.43;25.53;;;-0.10;99.90;;;;;;4455430;28;660364;-67
2020/12/14 03:23:27;;;;;;;98.68;24.00;;;-0.10;99.90;;;;;;4455465;28;660996;-67
2020/12/14 03:26:15;;;;;;;76.77;24.00;;;0.00;99.90;;;;;;4434541;28;661612;-68
2020/12/14 03:29:03;;;;;;;102.37;25.53;;;0.00;99.90;;;;;;4454198;28;658494;-65
2020/12/14 03:31:51;;;;;;;99.90;26.10;;;-0.10;99.90;;;;;;4453943;28;660736;-67
2020/12/14 03:34:38;;;;;;;95.53;26.23;;;-0.10;99.90;;;;;;4438151;28;660124;-66
2020/12/14 03:37:27;;;;;;;93.33;21.50;;;-0.10;99.90;;;;;;4452763;28;658938;-67
2020/12/14 03:40:15;;;;;;;90.00;24.53;;;0.10;99.90;;;;;;4431991;28;661014;-67
2020/12/14 03:43:03;;;;;;;99.93;26.23;;;0.20;99.90;;;;;;4434926;28;660184;-66
2020/12/14 03:45:50;;;;;;;91.63;24.93;;;0.10;99.90;;;;;;4453829;28;659238;-68
2020/12/14 03:48:38;;;;;;;119.73;28.83;;;0.00;99.90;;;;;;4460506;28;659664;-67
2020/12/14 03:51:25;;;;;;;110.50;29.03;;;0.00;99.90;;;;;;4433867;28;660585;-67
2020/12/14 03:54:12;;;;;;;151.23;32.60;;;0.00;99.90;;;;;;4459211;28;660355;-68
2020/12/14 03:56:59;;;;;;;106.00;31.90;;;0.00;99.90;;;;;;4446397;28;660231;-67
2020/12/14 03:59:46;;;;;;;140.50;33.67;;;0.00;99.90;;;;;;4456654;28;661587;-67
2020/12/14 04:03:26;;;;;;;113.50;31.07;;;-0.10;99.90;;;;;;4441840;28;659763;-67
2020/12/14 04:06:18;;;;;;;85.30;25.87;;;0.00;99.90;;;;;;4413783;28;660768;-67
2020/12/14 04:09:05;;;;;;;90.37;26.17;;;0.10;99.90;;;;;;4429250;28;659989;-67
2020/12/14 04:11:52;;;;;;;99.40;27.00;;;0.00;99.90;;;;;;4466350;28;658344;-67
2020/12/14 04:14:39;;;;;;;108.13;28.27;;;0.10;99.90;;;;;;4454904;28;659925;-67
2020/12/14 04:17:26;;;;;;;116.10;29.70;;;0.10;99.90;;;;;;4456419;28;660566;-68
2020/12/14 04:20:13;;;;;;;113.60;26.93;;;0.00;99.90;;;;;;4439547;28;660654;-68
2020/12/14 04:23:02;;;;;;;99.73;23.70;;;0.10;99.90;;;;;;4449853;28;661451;-67
2020/12/14 04:25:49;;;;;;;105.80;25.53;;;0.20;99.90;;;;;;4431049;28;660336;-67
2020/12/14 04:28:36;;;;;;;93.97;26.33;;;0.30;99.90;;;;;;4461977;28;659635;-68
2020/12/14 04:31:23;;;;;;;109.83;26.30;;;0.20;99.90;;;;;;4441771;28;658848;-67
2020/12/14 04:34:10;;;;;;;117.70;29.73;;;0.10;99.90;;;;;;4457523;28;660513;-67
2020/12/14 04:36:58;;;;;;;124.90;28.83;;;0.10;99.90;;;;;;4452935;28;659276;-66
2020/12/14 04:39:45;;;;;;;178.27;33.87;;;0.10;99.90;;;;;;4464544;28;660629;-67
2020/12/14 04:42:34;;;;;;;148.10;32.77;;;0.10;99.90;;;;;;4439123;28;659785;-65
2020/12/14 04:45:21;;;;;;;227.50;37.93;;;0.00;99.90;;;;;;4458649;28;661003;-67
2020/12/14 04:48:08;;;;;;;198.17;35.97;;;0.00;99.90;;;;;;4440533;28;659912;-67
2020/12/14 04:50:55;;;;;;;208.80;35.80;;;-0.10;99.90;;;;;;4453609;28;661130;-67
2020/12/14 04:53:42;;;;;;;220.33;37.93;;;0.10;99.90;;;;;;4453469;28;660604;-66
2020/12/14 04:56:31;;;;;;;231.87;37.97;;;0.10;99.90;;;;;;4455784;28;660289;-67
2020/12/14 04:59:17;;;;;;;339.83;38.37;;;0.00;99.90;;;;;;4436484;28;660078;-65
2020/12/14 05:02:07;;;;;;;323.43;38.23;;;0.00;99.90;;;;;;4458200;28;659576;-67
2020/12/14 05:04:54;;;;;;;272.90;37.93;;;0.00;99.90;;;;;;4430523;28;659677;-67
2020/12/14 05:07:41;;;;;;;261.90;37.70;;;0.00;99.90;;;;;;4458703;28;660446;-67
2020/12/14 05:10:29;;;;;;;246.27;39.83;;;0.00;99.90;;;;;;4443479;28;660023;-67
2020/12/14 05:13:17;;;;;;;290.90;43.43;;;0.00;99.90;;;;;;4457711;28;660173;-66
2020/12/14 05:16:04;;;;;;;340.93;40.60;;;-0.10;99.90;;;;;;4430652;28;660299;-67
2020/12/14 05:18:51;;;;;;;219.47;41.23;;;0.00;99.90;;;;;;4447770;28;660949;-67
2020/12/14 05:21:46;;;;;;;241.53;46.07;;;0.10;99.90;;;;;;4433750;28;660098;-66
2020/12/14 05:24:33;;;;;;;249.20;43.67;;;0.10;99.90;;;;;;4440876;28;659548;-67
2020/12/14 05:27:38;;;;;;;238.03;44.37;;;0.10;99.90;;;;;;4450520;28;661061;-67
2020/12/14 05:30:32;;;;;;;264.23;45.73;;;0.10;99.90;;;;;;4402683;28;660538;-67
2020/12/14 05:33:20;;;;;;;217.70;42.67;;;0.10;99.90;;;;;;4408912;28;661516;-67
2020/12/14 05:36:07;;;;;;;209.43;42.77;;;0.10;99.90;;;;;;4456141;28;660269;-67
2020/12/14 05:38:54;;;;;;;217.07;43.50;;;0.20;99.90;;;;;;4436230;28;659716;-67
2020/12/14 05:41:41;;;;;;;222.00;42.93;;;0.20;99.90;;;;;;4452445;28;661958;-67
2020/12/14 05:44:28;;;;;;;159.63;37.97;;;0.20;99.90;;;;;;4441461;28;661025;-66
2020/12/14 05:47:26;;;;;;;128.20;34.33;;;0.20;99.90;;;;;;4456657;28;661140;-67
2020/12/14 05:50:13;;;;;;;114.27;29.53;;;0.50;99.90;;;;;;4435407;28;659515;-67
2020/12/14 05:53:05;;;;;;;125.47;33.27;;;0.80;99.90;;;;;;4453907;28;660431;-67
2020/12/14 05:55:52;;;;;;;109.47;30.27;;;0.70;99.90;;;;;;4433675;28;659909;-67
2020/12/14 05:58:39;;;;;;;109.85;30.60;;;0.50;99.90;;;;;;4440355;28;661182;-67
2020/12/14 06:01:26;;;;;;;109.97;28.73;;;0.60;99.90;;;;;;4448043;28;660757;-67
2020/12/14 06:04:15;;;;;;;108.73;25.03;;;0.50;99.90;;;;;;4438584;28;659702;-67
2020/12/14 06:07:04;;;;;;;106.37;28.07;;;0.40;99.90;;;;;;4448128;28;659926;-67
2020/12/14 06:10:01;;;;;;;108.23;29.43;;;0.50;99.90;;;;;;4432678;28;660288;-67
2020/12/14 06:12:49;;;;;;;120.73;32.93;;;0.40;99.90;;;;;;4413750;28;659733;-67
2020/12/14 06:15:36;;;;;;;145.57;33.23;;;0.30;99.90;;;;;;4457402;28;661493;-67
2020/12/14 06:18:23;;;;;;;147.10;34.40;;;0.20;99.90;;;;;;4438887;28;660273;-65
2020/12/14 06:21:11;;;;;;;122.67;32.37;;;0.20;99.90;;;;;;4461732;28;661094;-67
2020/12/14 06:23:59;;;;;;;135.50;34.43;;;0.20;99.90;;;;;;4440328;28;659900;-66
2020/12/14 06:26:46;;;;;;;149.87;36.70;;;0.20;99.90;;;;;;4452227;28;659727;-68
2020/12/14 06:29:33;;;;;;;139.87;35.97;;;0.20;99.90;;;;;;4435857;28;659721;-67
2020/12/14 06:32:37;;;;;;;144.30;39.43;;;0.20;99.90;;;;;;4458200;28;660932;-68
2020/12/14 06:35:41;;;;;;;164.47;40.73;;;0.20;99.90;;;;;;4433805;28;659784;-67
2020/12/14 06:38:38;;;;;;;174.60;41.73;;;0.20;99.90;;;;;;4436720;28;659731;-68
2020/12/14 06:41:25;;;;;;;168.10;42.77;;;0.20;99.90;;;;;;4428666;28;660289;-67
2020/12/14 06:44:15;;;;;;;153.87;40.97;;;0.20;99.90;;;;;;4442621;28;659786;-66
2020/12/14 06:47:12;;;;;;;157.52;42.88;;;0.20;99.90;;;;;;4447826;28;659724;-68
2020/12/14 06:50:03;;;;;;;162.70;42.20;;;0.20;99.90;;;;;;4409745;28;660939;-67
2020/12/14 06:52:51;;;;;;;144.77;39.37;;;0.20;99.90;;;;;;4432877;28;659939;-67
2020/12/14 06:55:45;;;;;;;160.73;42.17;;;0.20;99.90;;;;;;4429593;28;659925;-65
2020/12/14 06:58:34;;;;;;;171.00;43.23;;;0.30;99.90;;;;;;4423431;28;660387;-65
2020/12/14 07:01:37;;;;;;;171.90;46.67;;;0.30;99.90;;;;;;4453470;28;660052;-67
2020/12/14 07:04:40;;;;;;;172.10;46.03;;;0.30;99.90;;;;;;4429655;28;660124;-67
2020/12/14 07:07:32;;;;;;;180.40;46.17;;;0.30;99.90;;;;;;4415113;28;659309;-65
2020/12/14 07:10:23;;;;;;;158.93;44.47;;;0.30;99.90;;;;;;4437005;28;661526;-67
2020/12/14 07:13:11;;;;;;;174.27;48.53;;;0.30;99.90;;;;;;4433880;28;661037;-67
2020/12/14 07:16:06;;;;;;;173.40;47.45;;;0.40;99.90;;;;;;4438841;28;661015;-65
2020/12/14 07:18:53;;;;;;;166.70;44.13;;;0.40;99.90;;;;;;4415409;28;660870;-67
2020/12/14 07:21:40;;;;;;;137.03;40.47;;;0.40;99.90;;;;;;4460274;28;660717;-67
2020/12/14 07:24:33;;;;;;;165.30;44.47;;;0.40;99.90;;;;;;4458640;28;659731;-67
2020/12/14 07:27:20;;;;;;;154.03;44.77;;;0.40;99.90;;;;;;4440117;28;659598;-67
2020/12/14 07:30:08;;;;;;;139.20;41.37;;;0.50;99.90;;;;;;4458446;28;659788;-68
2020/12/14 07:32:55;;;;;;;143.60;42.17;;;0.50;99.90;;;;;;4427785;28;660724;-68
2020/12/14 07:35:43;;;;;;;138.80;40.53;;;0.50;99.90;;;;;;4445670;28;659792;-66
2020/12/14 07:38:30;;;;;;;138.03;39.17;;;0.40;99.90;;;;;;4463089;28;659224;-67
2020/12/14 07:41:18;;;;;;;126.27;35.13;;;0.50;99.90;;;;;;4462316;28;660592;-67
2020/12/14 07:44:05;;;;;;;115.07;35.00;;;0.70;99.90;;;;;;4443685;28;660794;-67
2020/12/14 07:46:53;;;;;;;119.97;38.93;;;0.70;99.90;;;;;;4437595;28;659777;-65
2020/12/14 07:49:40;;;;;;;132.77;40.67;;;0.60;99.90;;;;;;4460356;28;661030;-68
2020/12/14 07:52:28;;;;;;;140.45;40.53;;;0.50;99.90;;;;;;4445197;28;659586;-65
2020/12/14 07:55:15;;;;;;;122.40;37.47;;;0.60;99.90;;;;;;4467493;28;659440;-67
2020/12/14 07:58:02;;;;;;;124.40;33.33;;;0.50;99.90;;;;;;4452723;28;660002;-68
2020/12/14 08:00:49;;;;;;;117.78;33.60;;;0.60;99.90;;;;;;4431237;28;659618;-67
2020/12/14 08:03:37;;;;;;;122.38;36.17;;;0.70;99.90;;;;;;4449943;28;661151;-68
2020/12/14 08:06:24;;;;;;;107.60;34.27;;;0.70;99.90;;;;;;4431051;28;660081;-67
2020/12/14 08:09:11;;;;;;;112.67;34.43;;;0.70;99.90;;;;;;4449859;28;660987;-67
2020/12/14 08:11:58;;;;;;;115.17;34.20;;;0.70;99.90;;;;;;4429791;28;659576;-67
2020/12/14 08:14:47;;;;;;;117.50;34.33;;;0.70;99.90;;;;;;4453829;28;661237;-67
2020/12/14 08:17:36;;;;;;;123.50;38.27;;;0.70;99.90;;;;;;4428997;28;659582;-67
2020/12/14 08:20:28;;;;;;;118.03;37.63;;;0.70;99.90;;;;;;4430596;28;659632;-67
2020/12/14 08:23:18;;;;;;;122.50;36.73;;;0.70;99.90;;;;;;4430465;28;660686;-68
2020/12/14 08:26:10;;;;;;;129.33;38.33;;;0.80;99.90;;;;;;4440943;27;660438;-67
2020/12/14 08:29:00;;;;;;;116.00;37.50;;;0.80;99.90;;;;;;4425549;28;660387;-65
2020/12/14 08:31:48;;;;;;;109.82;35.13;;;0.80;99.90;;;;;;4449815;28;660826;-68
2020/12/14 08:34:35;;;;;;;89.20;31.00;;;0.80;99.90;;;;;;4441417;28;660965;-68
2020/12/14 08:37:24;;;;;;;86.63;27.60;;;0.80;99.90;;;;;;4446987;28;659418;-66
2020/12/14 08:40:11;;;;;;;89.23;29.07;;;0.90;99.90;;;;;;4458778;28;658925;-67
2020/12/14 08:43:10;;;;;;;87.57;29.87;;;0.90;99.90;;;;;;4444175;28;658476;-65
2020/12/14 08:46:01;;;;;;;94.40;29.40;;;1.00;99.90;;;;;;4442002;28;659066;-67
2020/12/14 08:48:48;;;;;;;81.27;26.67;;;1.00;99.90;;;;;;4415318;28;658943;-65
2020/12/14 08:51:36;;;;;;;75.90;26.97;;;1.10;99.90;;;;;;4459338;28;658089;-68
2020/12/14 08:54:26;;;;;;;77.80;26.13;;;1.10;99.90;;;;;;4433364;28;658488;-67
2020/12/14 08:57:26;;;;;;;88.57;28.13;;;1.20;99.90;;;;;;4445269;28;659173;-67
2020/12/14 09:00:13;;;;;;;85.73;27.63;;;1.10;99.90;;;;;;4418796;28;658782;-63
2020/12/14 09:03:01;;;;;;;79.90;26.33;;;1.10;99.90;;;;;;4455487;28;659965;-67
2020/12/14 09:05:48;;;;;;;69.73;24.23;;;1.20;99.90;;;;;;4441061;28;658988;-65
2020/12/14 09:08:34;;;;;;;70.23;24.73;;;1.20;99.90;;;;;;4462186;28;658368;-68
2020/12/14 09:11:22;;;;;;;60.43;23.03;;;1.20;99.90;;;;;;4458081;28;658743;-67
2020/12/14 09:14:09;;;;;;;68.93;23.87;;;1.30;99.90;;;;;;4427317;28;660184;-67
2020/12/14 09:16:57;;;;;;;61.20;22.63;;;1.30;99.90;;;;;;4464624;28;658753;-67
2020/12/14 09:19:49;;;;;;;55.00;18.20;;;1.40;99.90;;;;;;4435076;28;659908;-67
2020/12/14 09:22:36;;;;;;;52.97;18.87;;;1.40;99.90;;;;;;4436032;28;659693;-67
2020/12/14 09:25:23;;;;;;;48.23;19.47;;;1.50;99.90;;;;;;4442655;28;658537;-67
2020/12/14 09:28:11;;;;;;;68.17;22.63;;;1.60;99.90;;;;;;4454961;28;659703;-67
2020/12/14 09:30:58;;;;;;;58.83;20.47;;;1.60;99.90;;;;;;4438298;28;660063;-66
2020/12/14 09:33:45;;;;;;;58.77;19.93;;;1.70;99.90;;;;;;4457315;28;660336;-67
2020/12/14 09:36:32;;;;;;;358.87;30.90;;;1.60;99.90;;;;;;4461642;28;658637;-66
2020/12/14 09:39:19;;;;;;;51.70;18.33;;;1.70;99.90;;;;;;4432924;28;660465;-68
2020/12/14 09:42:06;;;;;;;45.30;16.87;;;1.80;99.90;;;;;;4455134;28;659164;-68
2020/12/14 09:44:54;;;;;;;46.87;15.80;;;1.80;99.90;;;;;;4445981;28;658479;-64
2020/12/14 09:47:44;;;;;;;49.47;17.43;;;1.70;99.90;;;;;;4452392;28;660172;-67
2020/12/14 09:50:31;;;;;;;50.07;17.53;;;1.80;99.90;;;;;;4429721;28;659806;-67
2020/12/14 09:53:18;;;;;;;52.30;16.13;;;1.80;99.90;;;;;;4437718;28;658664;-67
2020/12/14 09:56:05;;;;;;;44.03;15.63;;;1.90;99.90;;;;;;4459075;28;659659;-68
2020/12/14 09:58:53;;;;;;;36.20;14.57;;;2.00;99.90;;;;;;4463259;28;658213;-64
2020/12/14 10:01:41;;;;;;;33.90;13.90;;;2.00;99.90;;;;;;4453515;28;658395;-68
2020/12/14 10:04:30;;;;;;;39.07;14.13;;;2.00;99.90;;;;;;4432721;28;659130;-65
2020/12/14 10:07:17;;;;;;;46.50;17.13;;;2.10;99.90;;;;;;4450579;28;659484;-68
2020/12/14 10:10:04;;;;;;;53.27;18.90;;;2.10;99.90;;;;;;4433918;28;658849;-68
2020/12/14 10:12:58;;;;;;;52.50;18.93;;;2.20;99.90;;;;;;4461321;28;659215;-68
2020/12/14 10:15:45;;;;;;;51.97;18.65;;;2.20;99.90;;;;;;4410526;28;660062;-67
2020/12/14 10:18:33;;;;;;;43.63;15.20;;;2.30;99.90;;;;;;4458388;28;659200;-68
2020/12/14 10:21:20;;;;;;;38.40;15.97;;;2.20;99.90;;;;;;4441157;28;660515;-69
2020/12/14 10:24:07;;;;;;;42.17;14.53;;;2.30;99.90;;;;;;4454570;28;658806;-67
2020/12/14 10:26:54;;;;;;;36.37;14.17;;;2.20;99.90;;;;;;4435556;28;659996;-67
2020/12/14 10:29:41;;;;;;;45.47;16.23;;;2.20;99.90;;;;;;4463499;28;660625;-68
2020/12/14 10:32:28;;;;;;;39.05;15.80;;;2.30;99.90;;;;;;4438816;28;658628;-65
2020/12/14 10:35:16;;;;;;;46.35;16.98;;;2.30;99.90;;;;;;4460465;28;658207;-67
2020/12/14 10:38:03;;;;;;;41.67;17.23;;;2.30;99.90;;;;;;4430022;28;659383;-66
2020/12/14 10:40:51;;;;;;;43.00;17.33;;;2.30;99.90;;;;;;4456725;28;660292;-67
2020/12/14 10:43:38;;;;;;;47.07;20.10;;;2.30;99.90;;;;;;4435622;28;659366;-65
2020/12/14 10:46:25;;;;;;;68.40;24.37;;;2.30;99.90;;;;;;4464447;28;658902;-67
2020/12/14 10:49:12;;;;;;;52.37;21.10;;;2.40;99.90;;;;;;4457003;28;658619;-67
2020/12/14 10:52:01;;;;;;;45.20;19.13;;;2.30;99.90;;;;;;4440305;28;660204;-67
2020/12/14 10:54:50;;;;;;;52.45;20.08;;;2.40;99.90;;;;;;4435113;28;658776;-67
2020/12/14 10:57:38;;;;;;;50.87;20.10;;;2.40;99.90;;;;;;4459050;28;659376;-65
2020/12/14 11:00:25;;;;;;;51.70;19.92;;;2.40;99.90;;;;;;4467543;28;657889;-67
2020/12/14 11:03:12;;;;;;;53.33;21.10;;;2.40;99.90;;;;;;4448770;28;659603;-67
2020/12/14 11:05:59;;;;;;;57.75;20.42;;;2.30;99.90;;;;;;4438814;28;658787;-67
2020/12/14 11:08:47;;;;;;;61.92;20.83;;;2.30;99.90;;;;;;4463319;28;659624;-67
2020/12/14 11:11:35;;;;;;;58.43;22.23;;;2.40;99.90;;;;;;4441129;28;658669;-66
2020/12/14 11:14:22;;;;;;;49.93;21.00;;;2.40;99.90;;;;;;4466496;28;658928;-67
2020/12/14 11:17:09;;;;;;;51.77;20.93;;;2.40;99.90;;;;;;4441777;28;660346;-67
2020/12/14 11:19:56;;;;;;;40.67;16.53;;;2.50;99.90;;;;;;4457348;28;658550;-67
2020/12/14 11:22:43;;;;;;;42.10;15.73;;;2.60;99.90;;;;;;4433641;28;658237;-67
2020/12/14 11:25:31;;;;;;;31.80;13.40;;;2.50;99.90;;;;;;4453628;28;659909;-67
2020/12/14 11:28:18;;;;;;;34.70;14.50;;;2.50;99.90;;;;;;4432564;28;660798;-67
2020/12/14 11:31:07;;;;;;;37.50;15.47;;;2.40;99.90;;;;;;4457569;28;659584;-67
2020/12/14 11:33:54;;;;;;;40.20;15.90;;;2.50;99.90;;;;;;4432851;28;660152;-67
2020/12/14 11:36:41;;;;;;;38.57;14.90;;;2.60;99.90;;;;;;4461869;28;659198;-67
2020/12/14 11:39:28;;;;;;;35.57;16.27;;;2.40;99.90;;;;;;4433925;28;658684;-67
2020/12/14 11:42:16;;;;;;;33.27;14.80;;;2.40;99.90;;;;;;4458992;28;660132;-67
2020/12/14 11:45:07;;;;;;;36.90;14.40;;;2.40;99.90;;;;;;4431922;28;659523;-67
2020/12/14 11:47:54;;;;;;;36.13;13.87;;;2.40;99.90;;;;;;4410031;28;659572;-67
2020/12/14 11:50:41;;;;;;;30.53;14.10;;;2.40;99.90;;;;;;4435262;28;658704;-68
2020/12/14 11:53:28;;;;;;;35.03;14.37;;;2.40;99.90;;;;;;4426352;28;658687;-67
2020/12/14 11:56:15;;;;;;;35.43;14.90;;;2.40;99.90;;;;;;4427723;28;659461;-68
2020/12/14 11:59:03;;;;;;;35.23;15.27;;;2.40;99.90;;;;;;4440943;28;659571;-63
2020/12/14 12:01:52;;;;;;;41.13;16.10;;;2.40;99.90;;;;;;4438590;28;658573;-68
2020/12/14 12:04:39;;;;;;;38.87;16.13;;;2.40;99.90;;;;;;4413753;28;660475;-67
2020/12/14 12:07:26;;;;;;;58.70;20.30;;;2.40;99.90;;;;;;4441001;28;658656;-67
2020/12/14 12:10:13;;;;;;;43.13;15.97;;;2.40;99.90;;;;;;4424514;28;658656;-67
2020/12/14 12:13:00;;;;;;;40.17;16.80;;;2.60;99.90;;;;;;4447288;28;659984;-67
2020/12/14 12:15:49;;;;;;;44.63;18.50;;;2.50;99.90;;;;;;4431620;28;658843;-64
2020/12/14 12:18:38;;;;;;;39.23;16.40;;;2.40;99.90;;;;;;4444365;28;659812;-67
2020/12/14 12:21:24;;;;;;;41.93;17.37;;;2.30;99.90;;;;;;4417605;28;661372;-67
2020/12/14 12:24:11;;;;;;;39.10;16.57;;;2.30;99.90;;;;;;4439745;28;659605;-67
2020/12/14 12:26:58;;;;;;;43.43;17.83;;;2.30;99.90;;;;;;4416307;28;658573;-67
2020/12/14 12:29:45;;;;;;;44.08;18.58;;;2.30;99.90;;;;;;4441675;28;659585;-67
2020/12/14 12:32:34;;;;;;;42.43;18.40;;;2.30;99.90;;;;;;4431338;28;658683;-64
2020/12/14 12:35:21;;;;;;;56.87;22.40;;;2.20;99.90;;;;;;4439376;28;659796;-67
2020/12/14 12:38:09;;;;;;;57.33;23.23;;;2.20;99.90;;;;;;4417884;28;659589;-67
2020/12/14 12:40:56;;;;;;;48.87;21.07;;;2.20;99.90;;;;;;4445474;28;658706;-67
2020/12/14 12:43:43;;;;;;;48.90;20.97;;;2.20;99.90;;;;;;4416198;28;659195;-66
2020/12/14 12:46:30;;;;;;;45.03;19.30;;;2.20;99.90;;;;;;4445852;28;660472;-66
2020/12/14 12:49:19;;;;;;;49.13;19.00;;;2.10;99.90;;;;;;4446763;28;658370;-65
2020/12/14 12:52:05;;;;;;;47.83;19.20;;;2.10;99.90;;;;;;4461298;28;660009;-68
2020/12/14 12:54:53;;;;;;;47.93;20.57;;;2.10;99.90;;;;;;4442649;28;658570;-66
2020/12/14 12:57:40;;;;;;;60.17;23.33;;;2.10;99.90;;;;;;4470991;28;658869;-68
2020/12/14 13:00:27;;;;;;;61.63;23.80;;;2.40;99.90;;;;;;4453726;28;659858;-68
2020/12/14 13:03:14;;;;;;;71.43;27.77;;;2.30;99.90;;;;;;4448314;28;658726;-67
2020/12/14 13:06:02;;;;;;;65.50;24.80;;;2.20;99.90;;;;;;4468326;28;659279;-67
2020/12/14 13:08:49;;;;;;;50.80;21.40;;;2.10;99.90;;;;;;4443910;28;659184;-67
2020/12/14 13:11:39;;;;;;;72.40;27.53;;;2.00;99.90;;;;;;4461532;28;658577;-67
2020/12/14 13:14:26;;;;;;;83.13;30.27;;;2.00;99.90;;;;;;4434188;28;658656;-67
2020/12/14 13:17:14;;;;;;;89.43;31.33;;;1.90;99.90;;;;;;4434939;28;658668;-67
2020/12/14 13:20:01;;;;;;;70.53;27.17;;;1.90;99.90;;;;;;4460345;28;659066;-67
2020/12/14 13:22:49;;;;;;;67.35;25.02;;;1.90;99.90;;;;;;4441584;28;659147;-66
2020/12/14 13:25:36;;;;;;;64.13;24.75;;;1.90;99.90;;;;;;4465595;28;659645;-68
2020/12/14 13:28:23;;;;;;;47.17;18.35;;;1.90;99.90;;;;;;4440422;28;658700;-65
2020/12/14 13:31:10;;;;;;;51.85;20.30;;;1.90;99.90;;;;;;4465163;28;659764;-67
2020/12/14 13:33:57;;;;;;;51.72;20.05;;;1.90;99.90;;;;;;4459117;28;658939;-68
2020/12/14 13:36:44;;;;;;;49.30;21.47;;;1.90;99.90;;;;;;4431283;28;659118;-67
2020/12/14 13:39:32;;;;;;;145.20;60.33;;;1.90;99.90;;;;;;4458060;28;658862;-67
2020/12/14 13:42:19;;;;;;;172.90;62.13;;;1.90;99.90;;;;;;4436995;28;661136;-67
2020/12/14 13:45:06;;;;;;;169.10;55.07;;;1.80;99.90;;;;;;4450089;28;660179;-67
2020/12/14 13:47:53;;;;;;;129.18;50.00;;;1.80;99.90;;;;;;4440406;28;659701;-67
2020/12/14 13:50:41;;;;;;;53.27;19.60;;;1.70;99.90;;;;;;4460429;28;661041;-67
2020/12/14 13:53:28;;;;;;;52.43;20.10;;;1.80;99.90;;;;;;4439655;28;658679;-67
2020/12/14 13:56:16;;;;;;;55.70;23.60;;;1.80;99.90;;;;;;4457453;28;659947;-67
2020/12/14 13:59:03;;;;;;;57.07;24.53;;;1.70;99.90;;;;;;4445692;28;658728;-67
2020/12/14 14:01:50;;;;;;;54.77;23.13;;;1.70;99.90;;;;;;4459143;28;660159;-67
2020/12/14 14:04:38;;;;;;;58.97;24.57;;;1.70;99.90;;;;;;4458477;28;659366;-65
2020/12/14 14:07:25;;;;;;;57.77;23.27;;;1.60;99.90;;;;;;4469158;28;658537;-67